Time;durP1;ratioP1;P1;durP2;ratioP2;P2;SDS_P1;SDS_P2;PMS_P1;PMS_P2;Temp;Humidity;BMP_temperature;BMP_pressure;BME280_temperature;BME280_humidity;BME280_pressure;Samples;Min_cycle;Max_cycle;Signal;HPM_P1;HPM_P2
2021/11/18 00:01:29;;;;;;;24.20;9.85;;;4.20;99.90;;;2.41;100.00;102273.94;2567791;30;137237;-38
2021/11/18 00:04:07;;;;;;;;;;;4.20;99.90;;;2.42;100.00;102274.78;2571521;30;137749;-38
2021/11/18 00:06:35;;;;;;;25.93;10.67;;;4.20;99.90;;;2.40;100.00;102257.88;2570317;30;137232;-38
2021/11/18 00:09:04;;;;;;;28.27;11.35;;;4.30;99.90;;;2.49;100.00;102278.69;2570537;30;138212;-38
2021/11/18 00:11:32;;;;;;;19.98;9.95;;;4.30;99.90;;;2.52;100.00;102283.84;2569594;30;137821;-38
2021/11/18 00:13:59;;;;;;;23.45;10.75;;;4.30;99.90;;;2.53;100.00;102282.00;2569670;30;138463;-38
2021/11/18 00:16:28;;;;;;;20.17;10.07;;;4.30;99.90;;;2.55;100.00;102288.97;2569955;30;138416;-38
2021/11/18 00:18:55;;;;;;;22.25;9.90;;;4.30;99.90;;;2.59;100.00;102292.25;2570170;30;138079;-38
2021/11/18 00:21:28;;;;;;;23.75;10.85;;;4.40;99.90;;;2.59;100.00;102290.44;2568259;30;137721;-38
2021/11/18 00:23:58;;;;;;;21.83;9.68;;;4.40;99.90;;;2.58;100.00;102290.56;2567450;30;138396;-38
2021/11/18 00:26:30;;;;;;;22.02;9.80;;;4.40;99.90;;;2.55;100.00;102290.81;2571196;30;136863;-38
2021/11/18 00:29:00;;;;;;;22.05;9.98;;;4.40;99.90;;;2.56;100.00;102279.91;2567968;30;138436;-38
2021/11/18 00:31:32;;;;;;;19.35;9.20;;;4.40;99.90;;;2.54;100.00;102279.19;2568911;30;139101;-38
2021/11/18 00:34:02;;;;;;;20.73;9.02;;;4.30;99.90;;;2.54;100.00;102281.00;2570073;30;137302;-37
2021/11/18 00:36:29;;;;;;;23.85;10.98;;;4.40;99.90;;;2.57;100.00;102272.69;2570324;30;136910;-38
2021/11/18 00:38:57;;;;;;;23.45;10.60;;;4.40;99.90;;;2.55;100.00;102280.91;2570678;30;139019;-38
2021/11/18 00:41:25;;;;;;;25.10;9.82;;;4.40;99.90;;;2.57;100.00;102272.69;2568246;30;137479;-38
2021/11/18 00:43:53;;;;;;;;;;;4.40;99.90;;;2.64;100.00;102281.13;2566045;30;140391;-38
2021/11/18 00:46:22;;;;;;;22.80;10.00;;;4.40;99.90;;;2.70;100.00;102288.72;2570156;30;137919;-38
2021/11/18 00:48:50;;;;;;;21.65;10.40;;;4.40;99.90;;;2.69;100.00;102287.88;2569700;30;137652;-38
2021/11/18 00:51:20;;;;;;;24.90;11.23;;;4.50;99.90;;;2.72;100.00;102287.63;2571274;30;137617;-38
2021/11/18 00:53:55;;;;;;;26.98;10.50;;;4.50;99.90;;;2.75;100.00;102288.34;2570552;30;140978;-38
2021/11/18 00:56:25;;;;;;;23.00;10.02;;;4.50;99.90;;;2.76;100.00;102292.75;2569789;30;138463;-38
2021/11/18 00:58:56;;;;;;;23.33;10.77;;;4.60;99.90;;;2.78;100.00;102286.22;2570625;30;138282;-38
2021/11/18 01:01:30;;;;;;;27.23;10.75;;;4.60;99.90;;;2.74;100.00;102290.16;2567995;30;139124;-38
2021/11/18 01:04:01;;;;;;;24.42;9.95;;;4.60;99.90;;;2.69;100.00;102287.88;2568567;30;137697;-38
2021/11/18 01:06:29;;;;;;;29.95;12.88;;;4.50;99.90;;;2.72;100.00;102295.69;2569156;30;139645;-38
2021/11/18 01:08:57;;;;;;;25.25;10.63;;;4.50;99.90;;;2.72;100.00;102298.41;2569765;30;138393;-38
2021/11/18 01:11:30;;;;;;;26.02;11.27;;;4.50;99.90;;;2.67;100.00;102295.22;2565844;30;139848;-38
2021/11/18 01:14:05;;;;;;;28.17;11.82;;;4.50;99.90;;;2.70;100.00;102303.06;2568938;30;137511;-38
2021/11/18 01:16:36;;;;;;;24.77;10.68;;;4.50;99.90;;;2.71;100.00;102304.78;2568432;30;137658;-38
2021/11/18 01:19:10;;;;;;;21.73;10.85;;;4.50;99.90;;;2.78;100.00;102315.03;2569753;30;137112;-38
2021/11/18 01:21:40;;;;;;;26.50;10.98;;;4.50;99.90;;;2.73;100.00;102320.78;2569147;30;138258;-38
2021/11/18 01:24:09;;;;;;;25.35;11.00;;;4.50;99.90;;;2.72;100.00;102319.97;2569789;30;139808;-38
2021/11/18 01:26:59;;;;;;;23.92;10.27;;;4.50;99.90;;;2.66;100.00;102315.06;2569213;30;136939;-38
2021/11/18 01:29:30;;;;;;;20.63;9.80;;;4.50;99.90;;;2.61;100.00;102321.81;2567166;30;140560;-40
2021/11/18 01:31:59;;;;;;;23.45;10.50;;;4.40;99.90;;;2.55;100.00;102326.72;2568567;30;137963;-41
2021/11/18 01:34:29;;;;;;;20.80;9.93;;;4.40;99.90;;;2.49;100.00;102334.41;2569305;30;140406;-40
2021/11/18 01:36:57;;;;;;;24.63;10.48;;;4.30;99.90;;;2.46;100.00;102329.28;2568698;30;138649;-38
2021/11/18 01:39:33;;;;;;;25.10;11.27;;;4.30;99.90;;;2.42;100.00;102337.59;2568124;30;137882;-38
2021/11/18 01:42:01;;;;;;;24.33;10.50;;;4.20;99.90;;;2.39;100.00;102334.28;2568469;30;137448;-38
2021/11/18 01:44:37;;;;;;;22.85;9.73;;;4.20;99.90;;;2.33;100.00;102329.38;2569904;30;140767;-37
2021/11/18 01:47:11;;;;;;;20.55;9.90;;;4.20;99.90;;;2.30;100.00;102327.78;2568419;30;137102;-41
2021/11/18 01:49:42;;;;;;;25.25;10.52;;;4.20;99.90;;;2.29;100.00;102326.94;2568625;30;138507;-40
2021/11/18 01:52:14;;;;;;;20.15;10.45;;;4.10;99.90;;;2.30;100.00;102327.78;2570347;30;138126;-40
2021/11/18 01:54:45;;;;;;;23.63;10.43;;;4.10;99.90;;;2.26;100.00;102319.09;2568982;30;139700;-40
2021/11/18 01:57:20;;;;;;;23.13;10.43;;;4.10;99.90;;;2.24;100.00;102322.88;2569499;30;138332;-41
2021/11/18 01:59:57;;;;;;;22.05;9.88;;;4.10;99.90;;;2.21;100.00;102318.59;2569339;30;137334;-38
2021/11/18 02:02:43;;;;;;;26.58;10.10;;;4.10;99.90;;;2.14;100.00;102302.06;2569291;30;136987;-38
2021/11/18 02:05:23;;;;;;;26.05;11.05;;;4.00;99.90;;;2.24;100.00;102317.50;2570340;30;137809;-38
2021/11/18 02:08:06;;;;;;;22.98;9.77;;;4.00;99.90;;;2.30;100.00;102325.09;2568136;30;139818;-38
2021/11/18 02:10:47;;;;;;;26.23;10.57;;;4.10;99.90;;;2.36;100.00;102332.69;2568078;30;140190;-38
2021/11/18 02:13:20;;;;;;;24.98;10.13;;;4.10;99.90;;;2.42;100.00;102323.25;2568374;30;138899;-38
2021/11/18 02:15:54;;;;;;;22.23;10.70;;;4.20;99.90;;;2.43;100.00;102325.84;2568600;30;140267;-40
2021/11/18 02:18:35;;;;;;;25.55;9.90;;;4.20;99.90;;;2.41;100.00;102333.19;2568477;30;139092;-40
2021/11/18 02:21:14;;;;;;;21.65;9.88;;;4.20;99.90;;;2.48;100.00;102341.63;2566252;30;139243;-38
2021/11/18 02:23:57;;;;;;;20.17;9.30;;;4.20;99.90;;;2.47;100.00;102347.16;2569834;30;137729;-38
2021/11/18 02:26:30;;;;;;;24.65;9.73;;;4.20;99.90;;;2.46;100.00;102350.81;2569642;30;139879;-41
2021/11/18 02:29:05;;;;;;;22.17;10.38;;;4.30;99.90;;;2.52;100.00;102361.13;2570691;30;139631;-40
2021/11/18 02:32:12;;;;;;;24.40;10.20;;;4.30;99.90;;;2.54;100.00;102365.41;2565457;30;138432;-40
2021/11/18 02:35:21;;;;;;;21.40;10.13;;;4.30;99.90;;;2.50;100.00;102365.78;2568215;30;137048;-41
2021/11/18 02:37:54;;;;;;;17.48;8.85;;;4.30;99.90;;;2.38;100.00;102354.97;2568433;30;137443;-38
2021/11/18 02:40:24;;;;;;;21.45;9.07;;;4.20;99.90;;;2.27;100.00;102361.22;2567604;30;137463;-38
2021/11/18 02:42:55;;;;;;;28.33;10.27;;;4.20;99.90;;;2.18;100.00;102375.38;2565647;30;141358;-38
2021/11/18 02:45:29;;;;;;;21.38;8.85;;;4.10;99.90;;;2.08;100.00;102364.47;2569490;30;139243;-38
2021/11/18 02:47:58;;;;;;;20.02;8.90;;;4.00;99.90;;;2.01;100.00;102369.47;2571153;30;138205;-38
2021/11/18 02:50:35;;;;;;;20.33;9.07;;;3.90;99.90;;;1.94;100.00;102357.44;2570946;30;139627;-38
2021/11/18 02:53:05;;;;;;;20.63;8.70;;;3.80;99.90;;;1.94;100.00;102367.38;2570114;30;137131;-38
2021/11/18 02:55:39;;;;;;;20.35;9.10;;;3.80;99.90;;;1.87;100.00;102366.97;2569870;30;139752;-38
2021/11/18 02:58:07;;;;;;;23.50;9.00;;;3.70;99.90;;;1.90;100.00;102365.91;2567740;30;139494;-38
2021/11/18 03:01:01;;;;;;;20.83;8.18;;;3.70;99.90;;;1.88;100.00;102362.47;2570616;30;136909;-38
2021/11/18 03:03:29;;;;;;;18.17;8.38;;;3.70;99.90;;;1.84;100.00;102361.84;2569864;30;140190;-38
2021/11/18 03:05:57;;;;;;;;;;;3.70;99.90;;;1.83;100.00;102360.13;2566576;30;138283;-38
2021/11/18 03:08:26;;;;;;;18.53;8.30;;;3.70;99.90;;;1.80;100.00;102361.19;2569348;30;140128;-38
2021/11/18 03:10:57;;;;;;;21.02;8.18;;;3.70;99.90;;;1.77;100.00;102361.44;2566070;30;138922;-38
2021/11/18 03:13:29;;;;;;;19.90;7.82;;;3.60;99.90;;;1.75;100.00;102363.38;2569985;30;138956;-38
2021/11/18 03:16:04;;;;;;;19.23;8.38;;;3.60;99.90;;;1.76;100.00;102372.34;2568553;30;138887;-41
2021/11/18 03:18:32;;;;;;;18.40;8.63;;;3.60;99.90;;;1.74;100.00;102361.66;2570709;30;139880;-41
2021/11/18 03:21:06;;;;;;;18.25;8.00;;;3.60;99.90;;;1.72;100.00;102366.31;2570635;30;138607;-40
2021/11/18 03:30:42;;;;;;;20.05;7.43;;;3.60;99.90;;;1.55;100.00;102349.59;2571460;30;139683;-39
2021/11/18 03:33:28;;;;;;;19.60;7.72;;;3.50;99.90;;;1.63;100.00;102367.88;2568480;30;137563;-39
2021/11/18 03:35:57;;;;;;;24.23;8.60;;;3.50;99.90;;;1.65;100.00;102371.28;2568067;30;137302;-40
2021/11/18 03:38:29;;;;;;;17.08;7.97;;;3.50;99.90;;;1.65;100.00;102370.44;2569025;30;137193;-39
2021/11/18 03:41:19;;;;;;;18.67;8.73;;;3.50;99.90;;;1.56;100.00;102362.06;2568066;30;138513;-39
2021/11/18 03:43:55;;;;;;;18.40;8.18;;;3.50;99.90;;;1.48;100.00;102363.66;2567315;30;139864;-39
2021/11/18 03:46:32;;;;;;;20.10;8.20;;;3.40;99.90;;;1.46;100.00;102362.88;2568157;30;139756;-39
2021/11/18 03:49:00;;;;;;;21.55;8.00;;;3.40;99.90;;;1.42;100.00;102368.50;2567666;30;137467;-39
2021/11/18 03:51:32;;;;;;;19.52;8.77;;;3.30;99.90;;;1.38;100.00;102366.16;2568759;30;138172;-39
2021/11/18 03:54:03;;;;;;;19.60;8.18;;;3.30;99.90;;;1.38;100.00;102367.00;2567363;30;138943;-39
2021/11/18 03:56:38;;;;;;;17.95;7.82;;;3.30;99.90;;;1.40;100.00;102369.59;2567579;30;136856;-39
2021/11/18 03:59:23;;;;;;;22.38;8.50;;;3.30;99.90;;;1.43;100.00;102359.44;2565270;30;137053;-39
2021/11/18 04:01:55;;;;;;;18.25;8.05;;;3.30;99.90;;;1.47;100.00;102346.63;2568169;30;138490;-40
2021/11/18 04:04:36;;;;;;;19.80;8.27;;;3.30;99.90;;;1.56;100.00;102355.84;2567774;30;138999;-39
2021/11/18 04:07:05;;;;;;;23.55;8.43;;;3.30;99.90;;;1.69;100.00;102363.88;2568493;30;139128;-39
2021/11/18 04:09:33;;;;;;;27.52;9.68;;;3.50;99.90;;;1.81;100.00;102371.00;2566522;30;138310;-39
2021/11/18 04:12:01;;;;;;;;;;;3.60;99.90;;;1.87;100.00;102375.06;2566860;30;138579;-39
2021/11/18 04:14:35;;;;;;;21.58;9.05;;;3.60;99.90;;;1.84;100.00;102378.81;2568465;30;137081;-39
2021/11/18 04:17:08;;;;;;;26.88;9.35;;;3.70;99.90;;;1.89;100.00;102375.78;2568006;30;139287;-39
2021/11/18 04:19:36;;;;;;;29.25;10.40;;;3.70;99.90;;;1.90;100.00;102380.19;2566787;30;138412;-39
2021/11/18 04:22:07;;;;;;;29.70;10.25;;;3.70;99.90;;;1.90;100.00;102387.44;2567734;30;140476;-39
2021/11/18 04:24:42;;;;;;;28.85;10.10;;;3.70;99.90;;;1.94;100.00;102386.22;2566374;30;139343;-39
2021/11/18 04:27:11;;;;;;;25.40;9.02;;;3.70;99.90;;;1.98;100.00;102390.38;2566053;30;137979;-39
2021/11/18 04:29:39;;;;;;;27.73;9.45;;;3.80;99.90;;;2.07;100.00;102394.22;2568189;30;138833;-39
2021/11/18 04:32:13;;;;;;;28.88;9.73;;;3.80;99.90;;;2.11;100.00;102385.75;2566615;30;138596;-39
2021/11/18 04:34:46;;;;;;;28.73;9.73;;;3.90;99.90;;;2.09;100.00;102387.72;2564018;30;137668;-39
2021/11/18 04:37:17;;;;;;;25.00;9.68;;;3.90;99.90;;;2.12;100.00;102390.19;2566705;30;138370;-39
2021/11/18 04:39:45;;;;;;;;;;;3.90;99.90;;;2.20;100.00;102399.50;2567994;30;137645;-39
2021/11/18 04:42:15;;;;;;;28.50;9.13;;;4.00;99.90;;;2.35;100.00;102401.00;2566352;30;138819;-39
2021/11/18 04:44:53;;;;;;;25.35;9.80;;;4.10;99.90;;;2.33;100.00;102396.72;2565178;38;138588;-39
2021/11/18 04:47:20;;;;;;;32.92;10.85;;;4.10;99.90;;;2.42;100.00;102396.00;2567065;30;140008;-39
2021/11/18 04:49:49;;;;;;;33.75;10.73;;;4.20;99.90;;;2.48;100.00;102397.38;2566833;30;138380;-39
2021/11/18 04:52:21;;;;;;;28.67;10.50;;;4.20;99.90;;;2.53;100.00;102393.34;2567945;30;139017;-39
2021/11/18 04:54:50;;;;;;;32.17;10.60;;;4.30;99.90;;;2.58;100.00;102398.34;2567450;30;137634;-39
2021/11/18 04:57:18;;;;;;;33.95;11.20;;;4.30;99.90;;;2.62;100.00;102399.81;2568143;30;139309;-39
2021/11/18 04:59:46;;;;;;;26.48;11.13;;;4.40;99.90;;;2.62;100.00;102394.44;2568471;30;137549;-39
2021/11/18 05:02:14;;;;;;;27.42;10.48;;;4.40;99.90;;;2.72;100.00;102406.22;2567869;30;140656;-39
2021/11/18 05:04:42;;;;;;;29.10;10.88;;;4.50;99.90;;;2.78;100.00;102410.22;2567509;30;138550;-39
2021/11/18 05:07:10;;;;;;;26.48;10.88;;;4.50;99.90;;;2.82;100.00;102405.47;2569695;30;138449;-39
2021/11/18 05:09:38;;;;;;;28.30;10.88;;;4.50;99.90;;;2.84;100.00;102406.19;2568520;30;139031;-39
2021/11/18 05:12:06;;;;;;;26.38;10.48;;;4.60;99.90;;;2.84;100.00;102400.81;2567601;30;139468;-39
2021/11/18 05:14:34;;;;;;;33.90;11.20;;;4.60;99.90;;;2.97;100.00;102398.84;2567691;30;137672;-39
2021/11/18 05:17:02;;;;;;;24.52;11.05;;;4.60;99.90;;;2.97;100.00;102390.78;2567933;30;139196;-39
2021/11/18 05:19:32;;;;;;;30.55;11.40;;;4.70;99.90;;;3.06;100.00;102391.00;2567738;30;140169;-39
2021/11/18 05:22:01;;;;;;;34.65;11.35;;;4.70;99.90;;;3.06;100.00;102388.31;2567337;30;140045;-39
2021/11/18 05:24:29;;;;;;;34.80;12.30;;;4.80;99.90;;;3.12;100.00;102379.69;2568223;30;138996;-39
2021/11/18 05:26:59;;;;;;;26.17;10.73;;;4.80;99.90;;;3.17;100.00;102380.19;2567169;30;139578;-39
2021/11/18 05:29:26;;;;;;;41.90;12.23;;;4.90;99.90;;;3.21;100.00;102380.78;2565731;30;137732;-39
2021/11/18 05:31:55;;;;;;;36.72;12.27;;;4.90;99.90;;;3.24;100.00;102376.03;2567602;30;140255;-39
2021/11/18 05:34:49;;;;;;;35.65;11.60;;;5.00;99.90;;;3.28;100.00;102373.91;2566088;30;136862;-39
2021/11/18 05:37:17;;;;;;;;;;;5.00;99.90;;;3.28;100.00;102380.19;2566239;30;140796;-39
2021/11/18 05:39:44;;;;;;;35.45;11.90;;;5.00;99.90;;;3.33;100.00;102387.03;2567998;30;138601;-39
2021/11/18 05:42:12;;;;;;;31.85;12.50;;;5.00;99.90;;;3.34;100.00;102380.66;2568494;30;139139;-39
2021/11/18 05:44:43;;;;;;;38.88;13.68;;;5.10;99.90;;;3.35;100.00;102385.06;2567143;30;138525;-39
2021/11/18 05:47:10;;;;;;;43.42;14.82;;;5.00;99.90;;;3.37;100.00;102389.34;2567035;30;137414;-39
2021/11/18 05:49:38;;;;;;;34.25;13.13;;;5.10;99.90;;;3.42;100.00;102388.97;2568133;30;137575;-39
2021/11/18 05:52:16;;;;;;;34.53;13.57;;;5.10;99.90;;;3.38;100.00;102385.69;2565740;30;140845;-39
2021/11/18 05:54:44;;;;;;;36.75;13.43;;;5.10;99.90;;;3.42;100.00;102389.81;2565479;30;137536;-40
2021/11/18 05:57:13;;;;;;;33.25;12.57;;;5.20;99.90;;;3.41;100.00;102380.03;2567729;30;139380;-39
2021/11/18 05:59:42;;;;;;;37.10;13.70;;;5.20;99.90;;;3.45;100.00;102380.63;2567016;30;140508;-39
2021/11/18 06:02:10;;;;;;;34.00;12.25;;;5.20;99.90;;;3.50;100.00;102381.09;2567101;30;140032;-39
2021/11/18 06:04:38;;;;;;;33.03;13.18;;;5.20;99.90;;;3.51;100.00;102395.44;2564606;30;139692;-39
2021/11/18 06:07:07;;;;;;;36.08;12.95;;;5.20;99.90;;;3.53;100.00;102394.34;2566430;30;139549;-39
2021/11/18 06:09:36;;;;;;;32.28;13.35;;;5.20;99.90;;;3.52;100.00;102389.06;2567188;30;137835;-39
2021/11/18 06:12:09;;;;;;;33.55;12.43;;;5.20;99.90;;;3.55;100.00;102392.38;2567332;30;139525;-39
2021/11/18 06:14:38;;;;;;;35.15;12.98;;;5.30;99.90;;;3.56;100.00;102404.00;2567524;30;139794;-39
2021/11/18 06:17:06;;;;;;;32.75;12.45;;;5.30;99.90;;;3.54;100.00;102405.97;2565144;30;139623;-39
2021/11/18 06:19:34;;;;;;;;;;;5.30;99.90;;;3.57;100.00;102419.22;2567852;30;139056;-39
2021/11/18 06:22:03;;;;;;;30.00;11.80;;;5.30;99.90;;;3.55;100.00;102418.47;2567103;30;139839;-39
2021/11/18 06:24:40;;;;;;;31.25;12.18;;;5.30;99.90;;;3.62;100.00;102417.00;2567251;30;136831;-39
2021/11/18 06:27:07;;;;;;;29.75;12.50;;;5.30;99.90;;;3.63;100.00;102424.13;2567582;30;136899;-39
2021/11/18 06:29:36;;;;;;;32.25;12.43;;;5.30;99.90;;;3.63;100.00;102421.44;2566943;30;138637;-39
2021/11/18 06:32:06;;;;;;;26.13;11.63;;;5.30;99.90;;;3.60;100.00;102424.38;2567734;30;139338;-39
2021/11/18 06:34:38;;;;;;;32.35;12.73;;;5.40;99.90;;;3.60;100.00;102427.09;2567500;30;139689;-39
2021/11/18 06:37:05;;;;;;;32.47;12.77;;;5.30;99.90;;;3.59;100.00;102411.88;2565516;30;138288;-39
2021/11/18 06:39:40;;;;;;;35.58;13.25;;;5.30;99.90;;;3.60;100.00;102395.53;2567141;30;139824;-39
2021/11/18 06:42:11;;;;;;;32.70;12.77;;;5.40;99.90;;;3.59;100.00;102399.22;2568388;30;140400;-39
2021/11/18 06:44:43;;;;;;;30.95;10.95;;;5.30;99.90;;;3.67;100.00;102413.91;2568258;30;138692;-39
2021/11/18 06:47:11;;;;;;;31.65;12.27;;;5.40;99.90;;;3.68;100.00;102419.19;2565221;30;138115;-39
2021/11/18 06:49:42;;;;;;;32.00;11.73;;;5.40;99.90;;;3.74;100.00;102423.25;2567737;30;139706;-39
2021/11/18 06:52:11;;;;;;;32.35;12.52;;;5.40;99.90;;;3.76;100.00;102415.88;2566440;30;138226;-39
2021/11/18 06:54:39;;;;;;;34.42;12.05;;;5.40;99.90;;;3.81;100.00;102418.16;2566071;30;138642;-39
2021/11/18 06:57:07;;;;;;;35.67;12.10;;;5.50;99.90;;;3.84;100.00;102434.97;2567992;30;139806;-39
2021/11/18 06:59:35;;;;;;;33.60;11.90;;;5.50;99.90;;;3.85;100.00;102435.84;2567329;30;139924;-39
2021/11/18 07:02:03;;;;;;;32.45;11.80;;;5.50;99.90;;;3.84;100.00;102432.28;2568439;30;139409;-39
2021/11/18 07:04:33;;;;;;;36.90;11.75;;;5.50;99.90;;;3.87;100.00;102439.28;2567249;30;139905;-39
2021/11/18 07:07:00;;;;;;;35.65;12.10;;;5.60;99.90;;;3.89;100.00;102431.91;2567127;30;139216;-39
2021/11/18 07:09:29;;;;;;;31.75;11.57;;;5.60;99.90;;;3.89;100.00;102423.78;2567488;30;138662;-39
2021/11/18 07:12:22;;;;;;;29.25;10.68;;;5.60;99.90;;;3.93;100.00;102427.06;2565647;30;139469;-39
2021/11/18 07:14:52;;;;;;;36.15;12.07;;;5.60;99.90;;;3.99;100.00;102423.88;2566146;30;138798;-39
2021/11/18 07:17:21;;;;;;;25.08;11.35;;;5.60;99.90;;;3.96;100.00;102438.47;2567849;30;138360;-39
2021/11/18 07:19:50;;;;;;;30.17;11.48;;;5.70;99.90;;;3.96;100.00;102451.13;2564059;30;137491;-39
2021/11/18 07:22:19;;;;;;;28.83;11.52;;;5.60;99.90;;;3.95;100.00;102455.69;2564236;30;140376;-39
2021/11/18 07:25:03;;;;;;;34.63;11.35;;;5.70;99.90;;;4.03;100.00;102463.16;2567173;30;137655;-40
2021/11/18 07:27:31;;;;;;;32.17;11.48;;;5.70;99.90;;;4.01;100.00;102460.56;2564714;30;138489;-39
2021/11/18 07:29:59;;;;;;;;;;;5.70;99.90;;;4.06;100.00;102449.38;2567873;30;139280;-39
2021/11/18 07:32:27;;;;;;;24.20;10.13;;;5.70;99.90;;;4.04;100.00;102454.06;2567399;30;140254;-39
2021/11/18 07:34:59;;;;;;;34.17;11.40;;;5.70;99.90;;;4.08;100.00;102455.50;2566943;30;137937;-39
2021/11/18 07:37:29;;;;;;;32.95;11.45;;;5.80;99.90;;;4.14;100.00;102459.53;2566533;30;140089;-39
2021/11/18 07:39:59;;;;;;;35.08;12.05;;;5.80;99.90;;;4.18;100.00;102469.94;2567965;30;138607;-39
2021/11/18 07:42:27;;;;;;;;;;;5.80;99.90;;;4.22;100.00;102464.28;2566909;30;139833;-39
2021/11/18 07:45:16;;;;;;;34.40;12.18;;;5.90;99.90;;;4.24;100.00;102463.16;2569096;30;136854;-39
2021/11/18 07:48:14;;;;;;;31.17;11.50;;;5.90;99.90;;;4.31;100.00;102460.81;2568132;30;137220;-39
2021/11/18 07:50:44;;;;;;;36.65;11.95;;;6.00;99.90;;;4.39;100.00;102473.66;2568170;30;139881;-39
2021/11/18 07:53:14;;;;;;;27.27;10.93;;;6.00;99.90;;;4.37;100.00;102465.69;2566549;30;138307;-39
2021/11/18 07:55:47;;;;;;;31.65;11.63;;;6.00;99.90;;;4.45;100.00;102463.16;2567893;30;138753;-39
2021/11/18 07:58:17;;;;;;;35.45;12.35;;;6.10;99.90;;;4.51;100.00;102466.31;2568137;30;138407;-39
2021/11/18 08:00:50;;;;;;;37.42;12.27;;;6.10;99.90;;;4.50;100.00;102454.66;2568014;30;139793;-39
2021/11/18 08:03:28;;;;;;;31.33;11.38;;;6.20;99.90;;;4.59;100.00;102463.84;2567918;30;139613;-39
2021/11/18 08:06:27;;;;;;;31.23;10.55;;;6.20;99.90;;;4.58;100.00;102470.25;2567082;30;139004;-39
2021/11/18 08:08:59;;;;;;;28.55;11.50;;;6.20;99.90;;;4.65;100.00;102465.16;2568769;30;139958;-39
2021/11/18 08:11:52;;;;;;;31.98;11.13;;;6.30;99.90;;;4.65;100.00;102459.75;2567183;30;138880;-39
2021/11/18 08:14:21;;;;;;;33.58;11.38;;;6.30;99.90;;;4.73;100.00;102468.03;2567481;30;140662;-39
2021/11/18 08:16:54;;;;;;;35.13;11.52;;;6.40;99.90;;;4.77;100.00;102474.03;2567017;30;137368;-40
2021/11/18 08:19:22;;;;;;;34.90;10.50;;;6.40;99.90;;;4.79;100.00;102472.06;2568549;30;140497;-39
2021/11/18 08:21:54;;;;;;;28.42;10.35;;;6.40;99.90;;;4.81;100.00;102476.34;2566802;30;138801;-39
2021/11/18 08:24:26;;;;;;;32.50;11.70;;;6.50;99.90;;;4.89;100.00;102467.56;2565954;30;139625;-39
2021/11/18 08:26:56;;;;;;;36.78;11.13;;;6.50;99.90;;;4.92;100.00;102469.16;2568066;30;139069;-39
2021/11/18 08:29:28;;;;;;;33.20;10.27;;;6.50;99.90;;;4.98;100.00;102472.16;2567785;30;138548;-39
2021/11/18 08:31:58;;;;;;;33.67;11.60;;;6.60;99.90;;;5.02;100.00;102489.81;2568541;30;139789;-39
2021/11/18 08:34:27;;;;;;;34.13;10.55;;;6.60;99.90;;;5.07;100.00;102491.28;2567520;30;137762;-40
2021/11/18 08:37:06;;;;;;;32.27;10.53;;;6.70;99.90;;;5.08;100.00;102501.97;2567691;30;140268;-39
2021/11/18 08:39:38;;;;;;;27.67;10.27;;;6.70;99.90;;;5.12;100.00;102503.41;2567150;30;139809;-39
2021/11/18 08:42:13;;;;;;;27.63;9.75;;;6.70;99.90;;;5.11;100.00;102515.22;2567431;30;139739;-39
2021/11/18 08:44:42;;;;;;;29.10;9.30;;;6.70;99.90;;;5.09;100.00;102510.94;2567225;30;139886;-39
2021/11/18 08:47:13;;;;;;;23.48;9.45;;;6.80;99.90;;;5.20;100.00;102523.53;2566546;30;138851;-39
2021/11/18 08:49:42;;;;;;;36.20;10.43;;;6.80;99.90;;;5.20;100.00;102515.41;2567167;30;139366;-39
2021/11/18 08:52:17;;;;;;;25.27;9.43;;;6.80;99.90;;;5.26;100.00;102510.31;2567683;30;139725;-39
2021/11/18 08:54:57;;;;;;;27.02;9.90;;;6.80;99.90;;;5.25;100.00;102522.13;2568117;30;139778;-39
2021/11/18 08:57:26;;;;;;;31.88;10.23;;;6.80;99.90;;;5.26;100.00;102523.84;2568080;30;139762;-39
2021/11/18 09:00:16;;;;;;;26.75;9.23;;;6.90;99.90;;;5.29;100.00;102517.31;2568466;30;140728;-39
2021/11/18 09:02:59;;;;;;;33.38;10.90;;;6.90;99.90;;;5.33;100.00;102525.03;2567437;30;137491;-39
2021/11/18 09:05:30;;;;;;;26.95;9.13;;;6.90;99.90;;;5.36;100.00;102521.16;2567133;30;138415;-39
2021/11/18 09:08:00;;;;;;;24.60;9.18;;;6.90;99.90;;;5.38;100.00;102515.63;2567088;30;137763;-39
2021/11/18 09:10:34;;;;;;;30.35;10.18;;;7.00;99.90;;;5.45;100.00;102516.78;2567804;30;139622;-39
2021/11/18 09:13:03;;;;;;;34.95;10.52;;;7.00;99.90;;;5.50;100.00;102519.94;2568990;30;138282;-40
2021/11/18 09:15:33;;;;;;;30.98;10.02;;;7.10;99.90;;;5.59;100.00;102526.38;2564449;30;137477;-39
2021/11/18 09:18:02;;;;;;;30.00;9.93;;;7.10;99.90;;;5.65;100.00;102514.16;2565967;30;138002;-39
2021/11/18 09:20:41;;;;;;;25.77;9.73;;;7.20;99.90;;;5.70;100.00;102515.47;2564954;30;140337;-40
2021/11/18 09:23:14;;;;;;;23.88;9.02;;;7.20;99.90;;;5.85;100.00;102524.06;2567863;30;139125;-39
2021/11/18 09:25:47;;;;;;;32.22;9.80;;;7.30;99.90;;;5.98;100.00;102517.50;2568494;30;139907;-39
2021/11/18 09:28:20;;;;;;;27.55;9.55;;;7.40;99.90;;;6.03;100.00;102513.41;2567581;30;136915;-39
2021/11/18 09:31:15;;;;;;;33.42;10.43;;;7.50;99.90;;;6.07;100.00;102513.13;2573254;30;140326;-38
2021/11/18 09:33:46;;;;;;;27.30;9.32;;;7.60;99.90;;;6.07;100.00;102513.97;2571294;30;139162;-38
2021/11/18 09:36:19;;;;;;;30.50;9.35;;;7.60;99.90;;;6.09;100.00;102509.25;2568362;30;139492;-38
2021/11/18 09:38:51;;;;;;;25.15;8.77;;;7.60;99.90;;;6.12;100.00;102506.28;2568916;30;140678;-38
2021/11/18 09:41:27;;;;;;;31.77;9.50;;;7.60;99.90;;;6.24;100.00;102511.56;2568090;30;138549;-38
2021/11/18 09:44:11;;;;;;;26.85;9.10;;;7.70;99.90;;;6.30;100.00;102519.13;2567855;30;138415;-38
2021/11/18 09:47:02;;;;;;;27.60;9.10;;;7.80;99.90;;;6.42;100.00;102515.28;2568943;30;140216;-37
2021/11/18 09:50:33;;;;;;;30.40;10.18;;;7.90;99.90;;;6.55;100.00;102517.69;2567693;30;139108;-38
2021/11/18 09:54:17;;;;;;;28.95;9.57;;;8.00;99.90;;;6.69;100.00;102520.94;2567927;30;138414;-38
2021/11/18 09:57:36;;;;;;;22.33;9.52;;;8.10;99.90;;;6.71;100.00;102535.22;2566196;30;138995;-38
2021/11/18 10:00:34;;;;;;;27.02;10.23;;;8.20;99.90;;;6.88;100.00;102537.19;2568810;30;138212;-38
2021/11/18 10:03:41;;;;;;;26.25;9.88;;;8.30;99.90;;;6.96;100.00;102541.03;2569888;30;139599;-38
2021/11/18 10:06:23;;;;;;;29.77;10.45;;;8.40;99.90;;;7.03;100.00;102548.44;2570884;30;138528;-38
2021/11/18 10:09:20;;;;;;;27.45;9.98;;;8.50;99.90;;;7.11;100.00;102552.28;2568307;30;140188;-38
2021/11/18 10:12:13;;;;;;;25.80;9.43;;;8.50;99.90;;;7.14;100.00;102544.69;2567008;30;138494;-38
2021/11/18 10:14:52;;;;;;;29.27;9.38;;;8.60;99.90;;;7.21;100.00;102553.13;2567451;30;137823;-38
2021/11/18 10:17:48;;;;;;;26.65;8.55;;;8.70;99.90;;;7.28;100.00;102548.78;2568150;30;140303;-38
2021/11/18 10:20:26;;;;;;;25.60;9.00;;;8.70;99.90;;;7.30;100.00;102546.78;2568314;30;138064;-38
2021/11/18 10:23:09;;;;;;;28.58;9.63;;;8.80;99.90;;;7.40;100.00;102549.47;2569385;30;138869;-38
2021/11/18 10:25:48;;;;;;;22.15;8.77;;;8.80;99.90;;;7.45;100.00;102538.16;2565177;30;137522;-38
2021/11/18 10:28:18;;;;;;;;;;;8.90;99.90;;;7.55;100.00;102538.09;2569393;30;137587;-38
2021/11/18 10:31:16;;;;;;;25.92;8.65;;;8.90;99.90;;;7.60;100.00;102538.53;2568660;30;137010;-38
2021/11/18 10:33:46;;;;;;;23.90;8.18;;;9.00;99.90;;;7.71;100.00;102537.47;2566334;30;137566;-38
2021/11/18 10:37:00;;;;;;;21.25;8.25;;;9.10;99.90;;;7.76;100.00;102518.84;2570892;30;137107;-38
2021/11/18 10:39:49;;;;;;;25.38;8.70;;;9.20;99.90;;;7.85;100.00;102530.66;2568929;30;137467;-38
2021/11/18 10:42:19;;;;;;;26.30;8.43;;;9.20;99.90;;;7.95;100.00;102534.16;2568478;30;138284;-38